sensor_id;sensor_type;location;lat;lon;timestamp;P1;durP1;ratioP1;P2;durP2;ratioP2
17504;SDS011;8870;50.950;11.762;2023-02-21T00:05:32;1.90;;;1.10;;
17504;SDS011;8870;50.950;11.762;2023-02-21T00:11:02;1.23;;;1.10;;
17504;SDS011;8870;50.950;11.762;2023-02-21T00:16:48;1.10;;;1.00;;
17504;SDS011;8870;50.950;11.762;2023-02-21T00:22:21;0.98;;;0.90;;
17504;SDS011;8870;50.950;11.762;2023-02-21T00:28:06;1.98;;;1.30;;
17504;SDS011;8870;50.950;11.762;2023-02-21T00:33:37;1.50;;;1.30;;
17504;SDS011;8870;50.950;11.762;2023-02-21T00:39:25;1.42;;;1.33;;
17504;SDS011;8870;50.950;11.762;2023-02-21T00:44:55;1.50;;;1.40;;
17504;SDS011;8870;50.950;11.762;2023-02-21T00:50:39;1.40;;;1.30;;
17504;SDS011;8870;50.950;11.762;2023-02-21T00:56:13;1.38;;;1.27;;
17504;SDS011;8870;50.950;11.762;2023-02-21T01:01:57;1.40;;;1.20;;
17504;SDS011;8870;50.950;11.762;2023-02-21T01:07:29;1.30;;;1.20;;
17504;SDS011;8870;50.950;11.762;2023-02-21T01:13:16;2.30;;;1.50;;
17504;SDS011;8870;50.950;11.762;2023-02-21T01:18:47;1.60;;;1.42;;
17504;SDS011;8870;50.950;11.762;2023-02-21T01:24:31;1.92;;;1.73;;
17504;SDS011;8870;50.950;11.762;2023-02-21T01:30:04;1.75;;;1.50;;
17504;SDS011;8870;50.950;11.762;2023-02-21T01:35:49;2.43;;;1.77;;
17504;SDS011;8870;50.950;11.762;2023-02-21T01:41:20;1.70;;;1.60;;
17504;SDS011;8870;50.950;11.762;2023-02-21T01:47:07;3.08;;;1.90;;
17504;SDS011;8870;50.950;11.762;2023-02-21T01:58:23;2.45;;;1.80;;
17504;SDS011;8870;50.950;11.762;2023-02-21T02:03:58;1.95;;;1.75;;
17504;SDS011;8870;50.950;11.762;2023-02-21T02:09:43;2.20;;;1.87;;
17504;SDS011;8870;50.950;11.762;2023-02-21T02:15:16;2.15;;;1.80;;
17504;SDS011;8870;50.950;11.762;2023-02-21T02:39:00;2.50;;;2.10;;
17504;SDS011;8870;50.950;11.762;2023-02-21T02:44:39;2.80;;;2.00;;
17504;SDS011;8870;50.950;11.762;2023-02-21T02:49:58;2.78;;;2.20;;
17504;SDS011;8870;50.950;11.762;2023-02-21T02:55:39;2.65;;;2.13;;
17504;SDS011;8870;50.950;11.762;2023-02-21T03:01:17;3.00;;;2.45;;
17504;SDS011;8870;50.950;11.762;2023-02-21T03:07:05;2.85;;;2.15;;
17504;SDS011;8870;50.950;11.762;2023-02-21T03:12:35;4.63;;;2.05;;
17504;SDS011;8870;50.950;11.762;2023-02-21T03:18:11;2.75;;;2.30;;
17504;SDS011;8870;50.950;11.762;2023-02-21T03:23:36;2.72;;;2.30;;
17504;SDS011;8870;50.950;11.762;2023-02-21T03:29:13;2.20;;;2.00;;
17504;SDS011;8870;50.950;11.762;2023-02-21T03:34:32;2.75;;;2.25;;
17504;SDS011;8870;50.950;11.762;2023-02-21T03:40:07;3.60;;;2.50;;
17504;SDS011;8870;50.950;11.762;2023-02-21T03:45:33;2.58;;;2.38;;
17504;SDS011;8870;50.950;11.762;2023-02-21T03:51:07;3.33;;;2.50;;
17504;SDS011;8870;50.950;11.762;2023-02-21T03:56:25;2.70;;;2.50;;
17504;SDS011;8870;50.950;11.762;2023-02-21T04:02:12;3.28;;;2.80;;
17504;SDS011;8870;50.950;11.762;2023-02-21T04:07:43;3.00;;;2.70;;
17504;SDS011;8870;50.950;11.762;2023-02-21T04:13:01;3.30;;;2.83;;
17504;SDS011;8870;50.950;11.762;2023-02-21T04:18:39;3.13;;;2.80;;
17504;SDS011;8870;50.950;11.762;2023-02-21T04:23:58;3.45;;;2.70;;
17504;SDS011;8870;50.950;11.762;2023-02-21T04:29:31;2.92;;;2.65;;
17504;SDS011;8870;50.950;11.762;2023-02-21T04:34:52;3.40;;;2.65;;
17504;SDS011;8870;50.950;11.762;2023-02-21T04:40:25;4.07;;;2.72;;
17504;SDS011;8870;50.950;11.762;2023-02-21T04:45:43;3.95;;;2.60;;
17504;SDS011;8870;50.950;11.762;2023-02-21T04:51:19;3.67;;;2.70;;
17504;SDS011;8870;50.950;11.762;2023-02-21T04:56:39;4.33;;;3.10;;
17504;SDS011;8870;50.950;11.762;2023-02-21T05:02:10;4.00;;;2.90;;
17504;SDS011;8870;50.950;11.762;2023-02-21T05:07:44;4.00;;;3.60;;
17504;SDS011;8870;50.950;11.762;2023-02-21T05:13:09;3.70;;;3.40;;
17504;SDS011;8870;50.950;11.762;2023-02-21T05:18:40;3.93;;;3.60;;
17504;SDS011;8870;50.950;11.762;2023-02-21T05:24:02;4.35;;;3.60;;
17504;SDS011;8870;50.950;11.762;2023-02-21T05:29:33;4.47;;;4.05;;
17504;SDS011;8870;50.950;11.762;2023-02-21T05:34:52;4.13;;;3.70;;
17504;SDS011;8870;50.950;11.762;2023-02-21T05:40:26;4.40;;;3.88;;
17504;SDS011;8870;50.950;11.762;2023-02-21T05:45:44;4.22;;;3.83;;
17504;SDS011;8870;50.950;11.762;2023-02-21T05:51:15;4.00;;;3.70;;
17504;SDS011;8870;50.950;11.762;2023-02-21T05:56:40;4.30;;;3.90;;
17504;SDS011;8870;50.950;11.762;2023-02-21T06:02:13;4.15;;;3.70;;
17504;SDS011;8870;50.950;11.762;2023-02-21T06:07:44;4.47;;;3.87;;
17504;SDS011;8870;50.950;11.762;2023-02-21T06:13:06;4.38;;;3.97;;
17504;SDS011;8870;50.950;11.762;2023-02-21T06:18:37;4.57;;;4.13;;
17504;SDS011;8870;50.950;11.762;2023-02-21T06:23:55;4.53;;;4.13;;
17504;SDS011;8870;50.950;11.762;2023-02-21T06:29:30;4.68;;;3.97;;
17504;SDS011;8870;50.950;11.762;2023-02-21T06:34:48;4.65;;;3.65;;
17504;SDS011;8870;50.950;11.762;2023-02-21T06:40:19;4.10;;;3.70;;
17504;SDS011;8870;50.950;11.762;2023-02-21T06:45:40;3.88;;;3.50;;
17504;SDS011;8870;50.950;11.762;2023-02-21T06:51:11;4.03;;;3.47;;
17504;SDS011;8870;50.950;11.762;2023-02-21T06:56:29;3.65;;;3.10;;
17504;SDS011;8870;50.950;11.762;2023-02-21T07:02:04;4.28;;;3.65;;
17504;SDS011;8870;50.950;11.762;2023-02-21T07:07:36;4.10;;;3.70;;
17504;SDS011;8870;50.950;11.762;2023-02-21T07:12:54;4.18;;;3.78;;
17504;SDS011;8870;50.950;11.762;2023-02-21T07:18:28;3.90;;;3.60;;
17504;SDS011;8870;50.950;11.762;2023-02-21T07:23:46;4.07;;;3.58;;
17504;SDS011;8870;50.950;11.762;2023-02-21T07:29:18;4.18;;;3.80;;
17504;SDS011;8870;50.950;11.762;2023-02-21T07:34:39;5.22;;;4.30;;
17504;SDS011;8870;50.950;11.762;2023-02-21T07:40:10;5.25;;;4.43;;
17504;SDS011;8870;50.950;11.762;2023-02-21T07:45:28;5.15;;;4.65;;
17504;SDS011;8870;50.950;11.762;2023-02-21T07:51:02;5.50;;;4.70;;
17504;SDS011;8870;50.950;11.762;2023-02-21T07:56:20;4.82;;;4.32;;
17504;SDS011;8870;50.950;11.762;2023-02-21T08:01:51;5.10;;;4.60;;
17504;SDS011;8870;50.950;11.762;2023-02-21T08:07:27;6.45;;;4.35;;
17504;SDS011;8870;50.950;11.762;2023-02-21T08:13:05;5.30;;;4.20;;
17504;SDS011;8870;50.950;11.762;2023-02-21T08:18:36;4.13;;;3.70;;
17504;SDS011;8870;50.950;11.762;2023-02-21T08:23:57;4.50;;;4.10;;
17504;SDS011;8870;50.950;11.762;2023-02-21T08:29:29;4.63;;;4.05;;
17504;SDS011;8870;50.950;11.762;2023-02-21T08:34:48;4.28;;;3.88;;
17504;SDS011;8870;50.950;11.762;2023-02-21T08:40:22;4.60;;;3.60;;
17504;SDS011;8870;50.950;11.762;2023-02-21T08:45:40;3.60;;;3.30;;
17504;SDS011;8870;50.950;11.762;2023-02-21T08:51:11;4.05;;;3.65;;
17504;SDS011;8870;50.950;11.762;2023-02-21T08:56:32;4.28;;;3.88;;
17504;SDS011;8870;50.950;11.762;2023-02-21T09:02:03;4.45;;;4.03;;
17504;SDS011;8870;50.950;11.762;2023-02-21T09:07:36;3.90;;;3.60;;
17504;SDS011;8870;50.950;11.762;2023-02-21T09:12:57;4.30;;;3.90;;
17504;SDS011;8870;50.950;11.762;2023-02-21T09:18:29;4.03;;;3.63;;
17504;SDS011;8870;50.950;11.762;2023-02-21T09:23:50;3.72;;;3.42;;
17504;SDS011;8870;50.950;11.762;2023-02-21T09:29:26;3.50;;;3.20;;
17504;SDS011;8870;50.950;11.762;2023-02-21T09:34:53;3.30;;;3.00;;
17504;SDS011;8870;50.950;11.762;2023-02-21T09:40:27;3.42;;;3.13;;
17504;SDS011;8870;50.950;11.762;2023-02-21T09:46:10;3.40;;;3.10;;
17504;SDS011;8870;50.950;11.762;2023-02-21T09:51:30;3.90;;;3.10;;
17504;SDS011;8870;50.950;11.762;2023-02-21T09:57:05;3.17;;;2.85;;
17504;SDS011;8870;50.950;11.762;2023-02-21T10:02:42;2.87;;;2.67;;
17504;SDS011;8870;50.950;11.762;2023-02-21T10:08:22;2.95;;;2.70;;
17504;SDS011;8870;50.950;11.762;2023-02-21T10:13:52;3.05;;;2.75;;
17504;SDS011;8870;50.950;11.762;2023-02-21T10:19:30;3.72;;;3.30;;
17504;SDS011;8870;50.950;11.762;2023-02-21T10:24:51;3.47;;;3.17;;
17504;SDS011;8870;50.950;11.762;2023-02-21T10:30:26;5.07;;;3.22;;
17504;SDS011;8870;50.950;11.762;2023-02-21T10:35:51;3.20;;;2.90;;
17504;SDS011;8870;50.950;11.762;2023-02-21T10:41:22;3.33;;;3.03;;
17504;SDS011;8870;50.950;11.762;2023-02-21T10:46:46;3.75;;;3.40;;
17504;SDS011;8870;50.950;11.762;2023-02-21T10:52:27;5.70;;;3.60;;
17504;SDS011;8870;50.950;11.762;2023-02-21T10:57:46;4.13;;;3.72;;
17504;SDS011;8870;50.950;11.762;2023-02-21T11:03:23;3.92;;;3.53;;
17504;SDS011;8870;50.950;11.762;2023-02-21T11:08:45;3.47;;;3.17;;
17504;SDS011;8870;50.950;11.762;2023-02-21T11:14:21;5.50;;;3.15;;
17504;SDS011;8870;50.950;11.762;2023-02-21T11:19:44;3.53;;;3.03;;
17504;SDS011;8870;50.950;11.762;2023-02-21T11:25:24;3.53;;;2.83;;
17504;SDS011;8870;50.950;11.762;2023-02-21T11:30:47;2.70;;;2.50;;
17504;SDS011;8870;50.950;11.762;2023-02-21T11:36:20;2.85;;;2.60;;
17504;SDS011;8870;50.950;11.762;2023-02-21T11:41:47;3.07;;;2.60;;
17504;SDS011;8870;50.950;11.762;2023-02-21T11:47:21;3.17;;;2.88;;
17504;SDS011;8870;50.950;11.762;2023-02-21T11:52:43;2.30;;;2.10;;
17504;SDS011;8870;50.950;11.762;2023-02-21T11:58:23;3.40;;;2.40;;
17504;SDS011;8870;50.950;11.762;2023-02-21T12:04:03;2.35;;;2.00;;
17504;SDS011;8870;50.950;11.762;2023-02-21T12:09:32;3.58;;;1.95;;
17504;SDS011;8870;50.950;11.762;2023-02-21T12:15:15;1.50;;;1.40;;
17504;SDS011;8870;50.950;11.762;2023-02-21T12:20:56;2.00;;;1.80;;
17504;SDS011;8870;50.950;11.762;2023-02-21T12:26:43;2.40;;;2.20;;
17504;SDS011;8870;50.950;11.762;2023-02-21T12:43:45;2.88;;;2.33;;
17504;SDS011;8870;50.950;11.762;2023-02-21T12:49:22;3.47;;;2.50;;
17504;SDS011;8870;50.950;11.762;2023-02-21T12:54:49;2.70;;;2.50;;
17504;SDS011;8870;50.950;11.762;2023-02-21T13:00:29;2.20;;;2.00;;
17504;SDS011;8870;50.950;11.762;2023-02-21T13:05:53;2.43;;;2.23;;
17504;SDS011;8870;50.950;11.762;2023-02-21T13:11:32;2.30;;;2.10;;
17504;SDS011;8870;50.950;11.762;2023-02-21T13:16:55;2.63;;;2.30;;
17504;SDS011;8870;50.950;11.762;2023-02-21T13:28:26;2.40;;;2.20;;
17504;SDS011;8870;50.950;11.762;2023-02-21T13:33:59;2.30;;;2.05;;
17504;SDS011;8870;50.950;11.762;2023-02-21T13:39:21;2.95;;;1.90;;
17504;SDS011;8870;50.950;11.762;2023-02-21T13:45:08;3.80;;;1.90;;
17504;SDS011;8870;50.950;11.762;2023-02-21T13:50:43;1.80;;;1.70;;
17504;SDS011;8870;50.950;11.762;2023-02-21T13:56:18;2.45;;;1.70;;
17504;SDS011;8870;50.950;11.762;2023-02-21T14:01:47;1.67;;;1.42;;
17504;SDS011;8870;50.950;11.762;2023-02-21T14:07:27;1.63;;;1.40;;
17504;SDS011;8870;50.950;11.762;2023-02-21T14:13:02;1.45;;;1.35;;
17504;SDS011;8870;50.950;11.762;2023-02-21T14:18:42;1.50;;;1.40;;
17504;SDS011;8870;50.950;11.762;2023-02-21T14:24:04;1.70;;;1.60;;
17504;SDS011;8870;50.950;11.762;2023-02-21T14:29:42;1.40;;;1.30;;
17504;SDS011;8870;50.950;11.762;2023-02-21T14:35:12;1.30;;;1.20;;
17504;SDS011;8870;50.950;11.762;2023-02-21T14:40:55;1.73;;;1.48;;
17504;SDS011;8870;50.950;11.762;2023-02-21T14:46:29;1.85;;;1.45;;
17504;SDS011;8870;50.950;11.762;2023-02-21T14:52:20;1.50;;;1.40;;
17504;SDS011;8870;50.950;11.762;2023-02-21T14:58:01;1.55;;;1.30;;
17504;SDS011;8870;50.950;11.762;2023-02-21T15:03:51;1.58;;;1.25;;
17504;SDS011;8870;50.950;11.762;2023-02-21T15:09:19;1.80;;;1.70;;
17504;SDS011;8870;50.950;11.762;2023-02-21T15:14:51;2.15;;;1.50;;
17504;SDS011;8870;50.950;11.762;2023-02-21T15:20:13;1.73;;;1.33;;
17504;SDS011;8870;50.950;11.762;2023-02-21T15:25:54;1.50;;;1.40;;
17504;SDS011;8870;50.950;11.762;2023-02-21T15:31:14;1.70;;;1.60;;
17504;SDS011;8870;50.950;11.762;2023-02-21T15:36:46;1.70;;;1.60;;
17504;SDS011;8870;50.950;11.762;2023-02-21T15:42:11;1.73;;;1.50;;
17504;SDS011;8870;50.950;11.762;2023-02-21T15:47:45;1.57;;;1.47;;
17504;SDS011;8870;50.950;11.762;2023-02-21T15:53:11;1.58;;;1.48;;
17504;SDS011;8870;50.950;11.762;2023-02-21T16:04:34;1.40;;;1.30;;
17504;SDS011;8870;50.950;11.762;2023-02-21T16:10:06;1.30;;;1.20;;
17504;SDS011;8870;50.950;11.762;2023-02-21T16:15:30;1.85;;;1.20;;
17504;SDS011;8870;50.950;11.762;2023-02-21T16:21:05;1.30;;;1.20;;
17504;SDS011;8870;50.950;11.762;2023-02-21T16:26:24;1.48;;;1.13;;
17504;SDS011;8870;50.950;11.762;2023-02-21T16:31:59;0.98;;;0.98;;
17504;SDS011;8870;50.950;11.762;2023-02-21T16:37:18;1.17;;;1.00;;
17504;SDS011;8870;50.950;11.762;2023-02-21T16:42:49;0.80;;;0.80;;
17504;SDS011;8870;50.950;11.762;2023-02-21T16:48:12;0.90;;;0.90;;
17504;SDS011;8870;50.950;11.762;2023-02-21T16:53:48;1.50;;;1.40;;
17504;SDS011;8870;50.950;11.762;2023-02-21T16:59:08;2.15;;;1.20;;
17504;SDS011;8870;50.950;11.762;2023-02-21T17:04:43;1.48;;;1.00;;
17504;SDS011;8870;50.950;11.762;2023-02-21T17:10:02;1.10;;;1.00;;
17504;SDS011;8870;50.950;11.762;2023-02-21T17:15:34;1.00;;;1.00;;
17504;SDS011;8870;50.950;11.762;2023-02-21T17:20:54;0.70;;;0.70;;
17504;SDS011;8870;50.950;11.762;2023-02-21T17:26:25;0.60;;;0.60;;
17504;SDS011;8870;50.950;11.762;2023-02-21T17:31:44;2.00;;;0.90;;
17504;SDS011;8870;50.950;11.762;2023-02-21T17:37:17;0.80;;;0.80;;
17504;SDS011;8870;50.950;11.762;2023-02-21T17:42:36;0.95;;;0.85;;
17504;SDS011;8870;50.950;11.762;2023-02-21T17:48:06;1.13;;;0.90;;
17504;SDS011;8870;50.950;11.762;2023-02-21T17:53:27;1.15;;;1.00;;
17504;SDS011;8870;50.950;11.762;2023-02-21T17:58:58;1.00;;;0.90;;
17504;SDS011;8870;50.950;11.762;2023-02-21T18:04:17;1.00;;;0.90;;
17504;SDS011;8870;50.950;11.762;2023-02-21T18:09:50;1.05;;;0.90;;
17504;SDS011;8870;50.950;11.762;2023-02-21T18:15:09;1.00;;;0.90;;
17504;SDS011;8870;50.950;11.762;2023-02-21T18:20:40;2.75;;;0.90;;
17504;SDS011;8870;50.950;11.762;2023-02-21T18:26:03;0.90;;;0.90;;
17504;SDS011;8870;50.950;11.762;2023-02-21T18:31:35;1.30;;;0.90;;
17504;SDS011;8870;50.950;11.762;2023-02-21T18:36:53;1.58;;;1.20;;
17504;SDS011;8870;50.950;11.762;2023-02-21T18:42:27;1.67;;;1.13;;
17504;SDS011;8870;50.950;11.762;2023-02-21T18:48:00;1.15;;;1.00;;
17504;SDS011;8870;50.950;11.762;2023-02-21T18:53:19;1.30;;;1.10;;
17504;SDS011;8870;50.950;11.762;2023-02-21T18:58:53;1.30;;;1.20;;
17504;SDS011;8870;50.950;11.762;2023-02-21T19:04:12;1.10;;;1.00;;
17504;SDS011;8870;50.950;11.762;2023-02-21T19:09:43;1.25;;;1.00;;
17504;SDS011;8870;50.950;11.762;2023-02-21T19:15:07;1.23;;;1.13;;
17504;SDS011;8870;50.950;11.762;2023-02-21T19:20:39;1.40;;;1.30;;
17504;SDS011;8870;50.950;11.762;2023-02-21T19:26:04;1.23;;;1.13;;
17504;SDS011;8870;50.950;11.762;2023-02-21T19:31:38;1.50;;;1.40;;
17504;SDS011;8870;50.950;11.762;2023-02-21T19:36:57;1.63;;;1.48;;
17504;SDS011;8870;50.950;11.762;2023-02-21T19:42:30;1.40;;;1.30;;
17504;SDS011;8870;50.950;11.762;2023-02-21T19:47:50;1.85;;;1.55;;
17504;SDS011;8870;50.950;11.762;2023-02-21T19:53:22;1.50;;;1.40;;
17504;SDS011;8870;50.950;11.762;2023-02-21T19:58:40;2.05;;;1.77;;
17504;SDS011;8870;50.950;11.762;2023-02-21T20:04:14;1.90;;;1.70;;
17504;SDS011;8870;50.950;11.762;2023-02-21T20:09:33;1.85;;;1.70;;
17504;SDS011;8870;50.950;11.762;2023-02-21T20:15:06;2.45;;;2.25;;
17504;SDS011;8870;50.950;11.762;2023-02-21T20:20:27;3.15;;;2.85;;
17504;SDS011;8870;50.950;11.762;2023-02-21T20:25:59;2.38;;;2.10;;
17504;SDS011;8870;50.950;11.762;2023-02-21T20:31:30;2.13;;;2.03;;
17504;SDS011;8870;50.950;11.762;2023-02-21T20:36:56;2.17;;;1.97;;
17504;SDS011;8870;50.950;11.762;2023-02-21T20:42:28;2.45;;;2.00;;
17504;SDS011;8870;50.950;11.762;2023-02-21T20:47:47;2.10;;;1.90;;
17504;SDS011;8870;50.950;11.762;2023-02-21T20:53:20;1.83;;;1.73;;
17504;SDS011;8870;50.950;11.762;2023-02-21T20:58:39;1.98;;;1.80;;
17504;SDS011;8870;50.950;11.762;2023-02-21T21:04:11;1.83;;;1.73;;
17504;SDS011;8870;50.950;11.762;2023-02-21T21:09:33;2.10;;;1.90;;
17504;SDS011;8870;50.950;11.762;2023-02-21T21:15:05;2.53;;;2.05;;
17504;SDS011;8870;50.950;11.762;2023-02-21T21:20:24;1.92;;;1.83;;
17504;SDS011;8870;50.950;11.762;2023-02-21T21:26:01;1.80;;;1.70;;
17504;SDS011;8870;50.950;11.762;2023-02-21T21:31:35;2.08;;;1.88;;
17504;SDS011;8870;50.950;11.762;2023-02-21T21:36:54;2.78;;;2.00;;
17504;SDS011;8870;50.950;11.762;2023-02-21T21:42:30;2.20;;;2.00;;
17504;SDS011;8870;50.950;11.762;2023-02-21T21:47:49;1.80;;;1.70;;
17504;SDS011;8870;50.950;11.762;2023-02-21T21:53:22;2.75;;;2.08;;
17504;SDS011;8870;50.950;11.762;2023-02-21T21:58:42;1.88;;;1.75;;
17504;SDS011;8870;50.950;11.762;2023-02-21T22:04:14;2.83;;;1.75;;
17504;SDS011;8870;50.950;11.762;2023-02-21T22:09:33;2.65;;;2.22;;
17504;SDS011;8870;50.950;11.762;2023-02-21T22:15:07;2.05;;;1.88;;
17504;SDS011;8870;50.950;11.762;2023-02-21T22:20:26;2.00;;;1.80;;
17504;SDS011;8870;50.950;11.762;2023-02-21T22:25:57;1.80;;;1.70;;
17504;SDS011;8870;50.950;11.762;2023-02-21T22:31:33;2.03;;;1.83;;
17504;SDS011;8870;50.950;11.762;2023-02-21T22:36:53;1.90;;;1.80;;
17504;SDS011;8870;50.950;11.762;2023-02-21T22:42:26;2.38;;;1.85;;
17504;SDS011;8870;50.950;11.762;2023-02-21T22:47:47;1.80;;;1.67;;
17504;SDS011;8870;50.950;11.762;2023-02-21T22:53:20;2.15;;;1.90;;
17504;SDS011;8870;50.950;11.762;2023-02-21T22:58:38;2.30;;;2.10;;
17504;SDS011;8870;50.950;11.762;2023-02-21T23:04:04;2.38;;;2.00;;
17504;SDS011;8870;50.950;11.762;2023-02-21T23:09:37;3.65;;;2.10;;
17504;SDS011;8870;50.950;11.762;2023-02-21T23:14:55;2.90;;;2.60;;
17504;SDS011;8870;50.950;11.762;2023-02-21T23:20:28;2.95;;;2.47;;
17504;SDS011;8870;50.950;11.762;2023-02-21T23:25:47;2.50;;;2.25;;
17504;SDS011;8870;50.950;11.762;2023-02-21T23:31:19;2.60;;;2.40;;
17504;SDS011;8870;50.950;11.762;2023-02-21T23:36:40;2.30;;;2.15;;
17504;SDS011;8870;50.950;11.762;2023-02-21T23:42:12;2.40;;;2.13;;
17504;SDS011;8870;50.950;11.762;2023-02-21T23:47:31;3.28;;;2.05;;
17504;SDS011;8870;50.950;11.762;2023-02-21T23:53:05;1.98;;;1.80;;
17504;SDS011;8870;50.950;11.762;2023-02-21T23:58:25;2.53;;;2.30;;
